Time;durP1;ratioP1;P1;durP2;ratioP2;P2;SDS_P1;SDS_P2;PMS_P1;PMS_P2;Temp;Humidity;BMP_temperature;BMP_pressure;BME280_temperature;BME280_humidity;BME280_pressure;Samples;Min_cycle;Max_cycle;Signal;HPM_P1;HPM_P2
2024/02/13 00:00:58;;;;;;;4.78;2.45;;;11.90;56.20;;;;;;6307271;28;20038;-75
2024/02/13 00:04:00;;;;;;;4.25;2.35;;;11.90;56.30;;;;;;6304312;28;20028;-76
2024/02/13 00:07:03;;;;;;;8.18;2.55;;;11.90;56.40;;;;;;6283996;28;20016;-78
2024/02/13 00:10:07;;;;;;;7.55;2.92;;;11.80;56.50;;;;;;6269454;28;20160;-78
2024/02/13 00:13:09;;;;;;;7.50;2.47;;;11.80;56.50;;;;;;6306959;28;20031;-77
2024/02/13 00:16:10;;;;;;;5.07;2.58;;;11.80;56.70;;;;;;6291970;28;20065;-79
2024/02/13 00:19:11;;;;;;;3.78;2.40;;;11.70;56.70;;;;;;6286030;28;20057;-78
2024/02/13 00:22:12;;;;;;;3.67;2.00;;;11.70;56.80;;;;;;6334088;27;20523;-78
2024/02/13 00:25:18;;;;;;;6.55;2.00;;;11.70;56.90;;;;;;6304988;28;20024;-78
2024/02/13 00:28:19;;;;;;;6.72;2.33;;;11.60;56.90;;;;;;6267060;28;20020;-78
2024/02/13 00:31:20;;;;;;;5.45;2.33;;;11.60;56.90;;;;;;6305908;28;20016;-78
2024/02/13 00:34:22;;;;;;;4.72;1.90;;;11.60;57.00;;;;;;6306374;28;20487;-77
2024/02/13 00:37:25;;;;;;;6.72;2.10;;;11.60;57.10;;;;;;6268522;28;20048;-78
2024/02/13 00:40:26;;;;;;;6.72;2.00;;;11.50;57.00;;;;;;6269358;28;20035;-78
2024/02/13 00:43:30;;;;;;;4.38;1.75;;;11.50;57.00;;;;;;6288895;28;20108;-77
2024/02/13 00:46:31;;;;;;;5.07;1.45;;;11.50;57.70;;;;;;6300250;28;20156;-76
2024/02/13 00:49:32;;;;;;;3.85;1.30;;;11.50;57.20;;;;;;6296189;28;20102;-78
2024/02/13 00:52:38;;;;;;;3.13;1.80;;;11.50;57.30;;;;;;6272490;28;20039;-77
2024/02/13 00:55:39;;;;;;;5.32;1.40;;;11.50;57.30;;;;;;6282795;28;20111;-76
2024/02/13 00:58:43;;;;;;;6.68;1.67;;;11.60;57.20;;;;;;6294161;28;20084;-77
2024/02/13 01:01:44;;;;;;;6.22;2.00;;;11.70;57.20;;;;;;6275977;28;20075;-78
2024/02/13 01:04:46;;;;;;;7.15;1.35;;;11.80;57.00;;;;;;6283602;28;20023;-76
2024/02/13 01:07:46;;;;;;;1.77;1.58;;;11.80;56.90;;;;;;6287982;28;20020;-77
2024/02/13 01:10:47;;;;;;;4.03;2.00;;;11.80;56.80;;;;;;6274635;28;20019;-77
2024/02/13 01:13:51;;;;;;;4.00;1.60;;;11.90;56.80;;;;;;6305355;28;20131;-77
2024/02/13 01:16:52;;;;;;;3.58;1.70;;;11.90;56.80;;;;;;6278493;28;20038;-77
2024/02/13 01:19:53;;;;;;;6.72;2.15;;;11.90;56.70;;;;;;6289586;28;20036;-78
2024/02/13 01:22:54;;;;;;;4.93;1.85;;;11.90;56.70;;;;;;6278978;28;20039;-77
2024/02/13 01:25:56;;;;;;;2.15;1.48;;;12.00;56.70;;;;;;6286614;28;20023;-78
2024/02/13 01:28:57;;;;;;;6.22;1.98;;;12.00;56.60;;;;;;6287596;28;20059;-79
2024/02/13 01:31:58;;;;;;;2.97;1.63;;;12.00;56.50;;;;;;6290586;28;20028;-77
2024/02/13 01:34:59;;;;;;;3.33;1.67;;;12.00;56.50;;;;;;6280139;28;20032;-77
2024/02/13 01:38:00;;;;;;;6.68;1.90;;;12.00;56.60;;;;;;6253283;28;20028;-77
2024/02/13 01:41:02;;;;;;;4.47;1.70;;;12.00;56.50;;;;;;6285862;28;20024;-77
2024/02/13 01:44:04;;;;;;;5.43;2.03;;;11.90;56.60;;;;;;6281386;28;20033;-78
2024/02/13 01:47:07;;;;;;;5.80;1.83;;;12.00;56.70;;;;;;6283816;28;20199;-78
2024/02/13 01:50:18;;;;;;;3.70;1.48;;;11.90;56.80;;;;;;6270542;28;20020;-77
2024/02/13 01:53:21;;;;;;;4.50;2.10;;;11.90;56.80;;;;;;6276468;28;20432;-78
2024/02/13 01:56:26;;;;;;;2.63;1.23;;;11.90;56.90;;;;;;6281996;28;20056;-78
2024/02/13 01:59:27;;;;;;;5.63;1.20;;;11.90;56.90;;;;;;6277178;28;20540;-78
2024/02/13 02:02:33;;;;;;;7.50;1.48;;;11.90;56.80;;;;;;6288832;28;20041;-77
2024/02/13 02:05:35;;;;;;;4.95;1.30;;;11.90;56.80;;;;;;6291790;28;20019;-78
2024/02/13 02:08:39;;;;;;;2.92;1.40;;;11.90;56.80;;;;;;6306576;28;20012;-78
2024/02/13 02:11:40;;;;;;;6.10;1.63;;;11.90;56.70;;;;;;6297115;28;20095;-77
2024/02/13 02:14:43;;;;;;;3.45;1.20;;;11.90;56.60;;;;;;6305785;28;20700;-77
2024/02/13 02:17:53;;;;;;;3.92;1.60;;;11.90;56.60;;;;;;6284849;28;20024;-78
2024/02/13 02:20:56;;;;;;;4.40;2.03;;;11.90;56.60;;;;;;6298232;28;20028;-78
2024/02/13 02:23:58;;;;;;;4.95;1.35;;;11.90;56.60;;;;;;6286640;28;20035;-78
2024/02/13 02:27:01;;;;;;;4.88;1.77;;;11.90;56.70;;;;;;6287957;28;20107;-77
2024/02/13 02:30:02;;;;;;;7.03;1.90;;;11.90;56.70;;;;;;6289820;28;20017;-78
2024/02/13 02:33:03;;;;;;;6.43;2.25;;;11.90;56.60;;;;;;6283911;28;21424;-78
2024/02/13 02:36:04;;;;;;;5.45;1.83;;;11.90;56.60;;;;;;6283579;28;20120;-76
2024/02/13 02:39:05;;;;;;;4.20;1.80;;;11.90;56.60;;;;;;6288861;28;20117;-77
2024/02/13 02:42:06;;;;;;;3.13;1.55;;;11.90;56.50;;;;;;6284353;28;20032;-79
2024/02/13 02:45:09;;;;;;;4.38;1.92;;;11.90;56.60;;;;;;6283292;28;20029;-78
2024/02/13 02:48:10;;;;;;;2.83;1.45;;;11.80;56.60;;;;;;6302110;28;20122;-79
2024/02/13 02:51:12;;;;;;;5.95;2.25;;;11.80;56.60;;;;;;6291774;28;20047;-78
2024/02/13 02:54:13;;;;;;;5.88;1.58;;;11.80;56.70;;;;;;6259989;28;20035;-77
2024/02/13 02:57:15;;;;;;;3.28;1.92;;;11.80;56.80;;;;;;6295247;28;20039;-78
2024/02/13 03:00:20;;;;;;;4.00;1.50;;;11.80;56.80;;;;;;6308204;28;20062;-78
2024/02/13 03:03:21;;;;;;;4.55;1.75;;;11.70;56.80;;;;;;6308299;28;20035;-78
2024/02/13 03:06:21;;;;;;;2.97;1.52;;;11.70;56.90;;;;;;6288923;28;20341;-78
2024/02/13 03:09:23;;;;;;;4.35;2.20;;;11.60;56.90;;;;;;6288385;28;20020;-77
2024/02/13 03:12:25;;;;;;;4.78;1.58;;;11.50;57.10;;;;;;6289230;28;20185;-78
2024/02/13 03:19:50;;;;;;;7.75;1.67;;;11.40;57.50;;;;;;6283523;28;20081;-77
2024/02/13 03:22:51;;;;;;;2.50;1.17;;;11.40;57.60;;;;;;6293032;28;20107;-78
2024/02/13 03:25:58;;;;;;;5.93;1.95;;;11.40;57.60;;;;;;6290156;28;20107;-78
2024/02/13 03:29:02;;;;;;;8.07;1.60;;;11.40;57.60;;;;;;6288955;28;20023;-76
2024/02/13 03:32:03;;;;;;;4.35;1.40;;;11.40;57.60;;;;;;6259752;28;20083;-79
2024/02/13 03:35:04;;;;;;;2.38;1.10;;;11.30;57.70;;;;;;6284170;28;20032;-76
2024/02/13 03:38:06;;;;;;;6.22;1.35;;;11.30;57.60;;;;;;6271428;28;20051;-77
2024/02/13 03:41:08;;;;;;;1.65;0.98;;;11.30;57.80;;;;;;6261229;28;20120;-78
2024/02/13 03:44:12;;;;;;;6.63;1.05;;;11.20;57.90;;;;;;6266733;28;20036;-76
2024/02/13 03:47:13;;;;;;;3.83;1.73;;;11.20;57.90;;;;;;6283557;28;20555;-79
2024/02/13 03:50:16;;;;;;;6.78;1.55;;;11.20;57.90;;;;;;6266266;28;20127;-77
2024/02/13 03:53:17;;;;;;;18.35;2.15;;;11.10;57.90;;;;;;6290609;28;20579;-76
2024/02/13 03:56:17;;;;;;;1.45;1.13;;;11.10;58.00;;;;;;6280528;28;20036;-77
2024/02/13 03:59:18;;;;;;;8.27;1.10;;;11.10;58.10;;;;;;6306581;28;20040;-77
2024/02/13 04:02:19;;;;;;;4.93;1.65;;;11.10;58.10;;;;;;6275984;28;20131;-77
2024/02/13 04:05:20;;;;;;;3.20;1.48;;;11.10;58.10;;;;;;6282856;28;20610;-77
2024/02/13 04:08:22;;;;;;;4.00;1.73;;;11.10;58.10;;;;;;6286542;28;20031;-77
2024/02/13 04:11:25;;;;;;;3.63;1.67;;;11.10;58.10;;;;;;6281992;28;20016;-78
2024/02/13 04:14:27;;;;;;;4.30;2.17;;;11.00;58.20;;;;;;6300711;28;20020;-78
2024/02/13 04:17:27;;;;;;;3.28;1.30;;;11.10;58.40;;;;;;6287725;28;20535;-76
2024/02/13 04:20:28;;;;;;;2.88;1.15;;;10.90;58.30;;;;;;6304443;28;20032;-77
2024/02/13 04:23:30;;;;;;;6.53;1.48;;;10.90;58.40;;;;;;6300862;28;20060;-78
2024/02/13 04:26:33;;;;;;;4.32;1.40;;;10.80;58.60;;;;;;6306210;28;20020;-78
2024/02/13 04:29:34;;;;;;;4.57;1.30;;;10.80;58.70;;;;;;6306130;28;20057;-76
2024/02/13 04:32:37;;;;;;;9.57;1.92;;;10.70;58.70;;;;;;6306571;28;20039;-77
2024/02/13 04:35:39;;;;;;;3.95;1.42;;;10.70;58.80;;;;;;6282303;28;20471;-78
2024/02/13 04:38:40;;;;;;;8.85;1.88;;;10.70;58.70;;;;;;6291135;28;20051;-76
2024/02/13 04:41:44;;;;;;;5.43;1.52;;;10.70;58.80;;;;;;6281877;28;20048;-77
2024/02/13 04:44:47;;;;;;;2.15;1.50;;;10.70;58.90;;;;;;6280847;28;20047;-77
2024/02/13 04:48:11;;;;;;;5.38;2.25;;;10.70;58.90;;;;;;6281210;28;20020;-76
2024/02/13 04:51:12;;;;;;;3.60;1.98;;;10.70;59.00;;;;;;6266365;28;20017;-78
2024/02/13 04:54:19;;;;;;;2.13;1.27;;;10.70;59.10;;;;;;6260198;28;20086;-77
2024/02/13 04:57:20;;;;;;;6.22;1.58;;;10.70;59.10;;;;;;6258159;28;20029;-78
2024/02/13 05:00:27;;;;;;;3.35;1.73;;;10.70;59.10;;;;;;6300018;28;20115;-78
2024/02/13 05:03:39;;;;;;;2.90;1.25;;;10.60;59.10;;;;;;6286238;28;20055;-78
2024/02/13 05:10:02;;;;;;;2.17;1.33;;;10.60;59.20;;;;;;6293024;28;20082;-77
2024/02/13 05:13:03;;;;;;;5.53;1.90;;;10.60;59.20;;;;;;6280209;28;20012;-76
2024/02/13 05:16:06;;;;;;;4.15;1.63;;;10.60;59.20;;;;;;6284560;28;20115;-78
2024/02/13 05:19:08;;;;;;;3.65;1.60;;;10.70;59.20;;;;;;6296108;28;20016;-80
2024/02/13 05:22:09;;;;;;;6.82;1.92;;;10.60;59.10;;;;;;6305896;28;20633;-77
2024/02/13 05:25:13;;;;;;;2.50;1.30;;;10.70;59.10;;;;;;6274353;28;20053;-78
2024/02/13 05:28:15;;;;;;;2.90;1.33;;;10.60;59.10;;;;;;6276088;28;20516;-78
2024/02/13 05:31:17;;;;;;;4.20;1.80;;;10.60;59.20;;;;;;6284304;28;20024;-78
2024/02/13 05:34:19;;;;;;;3.72;1.67;;;10.70;59.20;;;;;;6280449;28;20107;-78
2024/02/13 05:37:20;;;;;;;4.78;1.65;;;10.60;59.20;;;;;;6266350;28;20036;-77
2024/02/13 05:40:22;;;;;;;11.32;2.22;;;10.60;59.20;;;;;;6283637;28;20020;-77
2024/02/13 05:43:23;;;;;;;4.90;1.85;;;10.60;59.30;;;;;;6268903;28;20032;-76
2024/02/13 05:46:24;;;;;;;5.88;1.67;;;10.50;59.30;;;;;;6284199;28;20705;-77
2024/02/13 05:49:26;;;;;;;4.68;2.08;;;10.50;59.30;;;;;;6267933;28;20024;-77
2024/02/13 05:52:27;;;;;;;3.47;1.88;;;10.40;59.40;;;;;;6286584;28;20182;-77
2024/02/13 05:55:30;;;;;;;9.05;1.92;;;10.40;59.50;;;;;;6286309;28;20590;-77
2024/02/13 05:58:33;;;;;;;10.88;2.08;;;10.30;59.60;;;;;;6267480;28;20048;-77
2024/02/13 06:01:34;;;;;;;4.80;1.98;;;10.30;59.70;;;;;;6268561;28;20036;-78
2024/02/13 06:04:36;;;;;;;5.68;1.50;;;10.30;59.90;;;;;;6286653;28;21310;-80
2024/02/13 06:07:38;;;;;;;3.95;1.60;;;10.30;60.10;;;;;;6284291;28;20742;-76
2024/02/13 06:10:39;;;;;;;4.15;2.33;;;10.20;60.00;;;;;;6265180;28;20159;-76
2024/02/13 06:13:45;;;;;;;11.13;2.65;;;10.10;60.10;;;;;;6285702;28;20027;-76
2024/02/13 06:16:46;;;;;;;12.10;2.33;;;10.10;60.40;;;;;;6259829;28;20114;-75
2024/02/13 06:19:47;;;;;;;2.38;1.70;;;10.10;60.60;;;;;;6286905;28;20502;-75
2024/02/13 06:22:48;;;;;;;9.45;2.28;;;10.00;60.70;;;;;;6282932;28;20131;-76
2024/02/13 06:25:49;;;;;;;5.40;1.80;;;10.00;60.80;;;;;;6283810;28;20044;-74
2024/02/13 06:28:51;;;;;;;7.55;2.03;;;9.90;60.80;;;;;;6265411;28;20333;-73
2024/02/13 06:31:54;;;;;;;11.50;2.60;;;9.90;61.00;;;;;;6270194;28;20206;-74
2024/02/13 06:34:55;;;;;;;7.82;1.98;;;10.00;61.00;;;;;;6281365;28;20072;-76
2024/02/13 06:37:58;;;;;;;3.13;1.63;;;9.90;61.00;;;;;;6268260;28;20439;-74
2024/02/13 06:40:59;;;;;;;8.43;2.90;;;10.00;61.10;;;;;;6280757;28;20473;-74
2024/02/13 06:44:03;;;;;;;11.48;2.53;;;10.00;61.10;;;;;;6271880;28;20698;-76
2024/02/13 06:47:06;;;;;;;6.57;3.13;;;10.00;61.00;;;;;;6263195;28;20047;-75
2024/02/13 06:50:12;;;;;;;6.63;2.72;;;10.00;61.00;;;;;;6284067;28;20024;-75
2024/02/13 06:53:13;;;;;;;7.72;2.47;;;9.90;61.10;;;;;;6282256;28;20455;-75
2024/02/13 06:56:14;;;;;;;7.00;3.03;;;9.90;61.00;;;;;;6300447;28;20031;-75
2024/02/13 06:59:15;;;;;;;5.60;2.25;;;9.80;61.80;;;;;;6308464;28;20175;-76
2024/02/13 07:02:16;;;;;;;5.53;2.63;;;9.80;61.20;;;;;;6305845;28;20031;-75
2024/02/13 07:05:17;;;;;;;11.40;3.03;;;9.80;61.30;;;;;;6291414;28;20111;-75
2024/02/13 07:08:18;;;;;;;7.20;2.58;;;9.70;61.30;;;;;;6266592;28;20110;-75
2024/02/13 07:11:19;;;;;;;3.50;2.25;;;9.80;61.40;;;;;;6290524;28;20032;-74
2024/02/13 07:14:20;;;;;;;7.20;2.88;;;9.80;61.40;;;;;;6293016;28;20054;-74
2024/02/13 07:17:22;;;;;;;9.73;2.72;;;9.90;61.40;;;;;;6285307;28;20047;-75
2024/02/13 07:20:23;;;;;;;11.38;2.53;;;9.90;61.40;;;;;;6285937;28;20363;-73
2024/02/13 07:23:24;;;;;;;11.85;2.63;;;9.90;61.20;;;;;;6262665;28;20045;-74
2024/02/13 07:26:25;;;;;;;8.25;2.40;;;10.00;61.30;;;;;;6281078;28;20434;-75
2024/02/13 07:29:27;;;;;;;5.53;3.00;;;10.00;61.10;;;;;;6282399;28;20120;-74
2024/02/13 07:32:29;;;;;;;12.00;2.92;;;10.00;61.00;;;;;;6282262;28;20104;-74
2024/02/13 07:35:30;;;;;;;7.75;3.05;;;10.10;61.80;;;;;;6297146;28;20478;-74
2024/02/13 07:38:32;;;;;;;3.92;1.95;;;10.10;60.80;;;;;;6305427;28;20120;-73
2024/02/13 07:41:35;;;;;;;12.45;3.35;;;10.20;60.70;;;;;;6267419;28;20044;-74
2024/02/13 07:44:36;;;;;;;8.93;3.13;;;10.10;60.60;;;;;;6264910;28;20207;-75
2024/02/13 07:47:39;;;;;;;19.52;4.68;;;10.20;60.60;;;;;;6284321;28;20104;-74
2024/02/13 07:50:40;;;;;;;12.82;3.72;;;10.10;60.60;;;;;;6266311;28;20017;-75
2024/02/13 07:53:41;;;;;;;9.25;3.75;;;10.20;60.60;;;;;;6306958;28;20027;-74
2024/02/13 07:56:43;;;;;;;9.55;3.42;;;10.20;60.60;;;;;;6260573;28;20116;-75
2024/02/13 07:59:45;;;;;;;6.68;3.35;;;10.20;60.60;;;;;;6256403;28;20025;-74
2024/02/13 08:02:48;;;;;;;11.30;4.00;;;10.20;60.60;;;;;;6260314;28;20159;-74
2024/02/13 08:05:50;;;;;;;7.82;2.95;;;10.20;60.50;;;;;;6288746;28;20618;-74
2024/02/13 08:08:51;;;;;;;7.65;3.33;;;10.20;60.60;;;;;;6282094;28;20028;-75
2024/02/13 08:11:55;;;;;;;6.65;3.00;;;10.20;60.70;;;;;;6292245;28;20027;-75
2024/02/13 08:14:57;;;;;;;6.97;3.03;;;10.20;60.90;;;;;;6306854;28;20046;-75
2024/02/13 08:17:59;;;;;;;6.07;3.30;;;10.20;60.80;;;;;;6268097;28;20056;-74
2024/02/13 08:21:03;;;;;;;8.23;3.10;;;10.40;60.90;;;;;;6284494;28;20073;-76
2024/02/13 08:24:08;;;;;;;8.27;3.17;;;10.50;60.70;;;;;;6282748;28;20037;-75
2024/02/13 08:27:09;;;;;;;6.65;2.92;;;10.60;60.40;;;;;;6295771;28;20027;-76
2024/02/13 08:30:11;;;;;;;7.22;3.75;;;10.60;60.10;;;;;;6285755;28;20020;-74
2024/02/13 08:33:15;;;;;;;5.32;3.47;;;10.80;59.90;;;;;;6285549;28;20103;-75
2024/02/13 08:36:18;;;;;;;7.13;3.67;;;10.90;59.80;;;;;;6266573;28;20234;-75
2024/02/13 08:39:18;;;;;;;9.20;3.58;;;11.10;59.60;;;;;;6296047;28;20025;-76
2024/02/13 08:42:20;;;;;;;16.55;5.05;;;11.20;59.30;;;;;;6294169;28;20055;-74
2024/02/13 08:45:21;;;;;;;15.35;4.32;;;11.40;59.20;;;;;;6280524;28;20111;-76
2024/02/13 08:48:23;;;;;;;13.20;5.07;;;11.50;59.00;;;;;;6304025;28;20064;-73
2024/02/13 08:51:27;;;;;;;26.63;4.55;;;11.70;58.60;;;;;;6298061;28;20092;-75
2024/02/13 08:54:28;;;;;;;14.45;5.82;;;11.80;58.30;;;;;;6303835;28;20387;-75
2024/02/13 08:57:29;;;;;;;17.20;4.88;;;11.90;58.10;;;;;;6261140;28;20036;-75
2024/02/13 09:00:30;;;;;;;19.75;4.25;;;12.00;57.70;;;;;;6280013;28;20169;-76
2024/02/13 09:03:31;;;;;;;13.23;4.97;;;12.20;57.70;;;;;;6300146;28;20067;-75
2024/02/13 09:06:33;;;;;;;14.70;5.20;;;12.30;57.40;;;;;;6298810;28;20016;-75
2024/02/13 09:09:36;;;;;;;15.13;4.25;;;12.40;57.30;;;;;;6295099;28;20026;-76
2024/02/13 09:12:45;;;;;;;17.65;4.68;;;12.40;57.70;;;;;;6296114;28;20111;-75
2024/02/13 09:15:45;;;;;;;7.60;3.40;;;12.50;56.80;;;;;;6275747;28;20029;-76
2024/02/13 09:18:47;;;;;;;7.28;4.05;;;12.50;56.70;;;;;;6246433;28;20064;-76
2024/02/13 09:21:48;;;;;;;8.98;4.57;;;12.60;56.50;;;;;;6272646;28;20031;-75
2024/02/13 09:24:50;;;;;;;8.27;4.45;;;12.70;56.30;;;;;;6284310;28;20028;-77
2024/02/13 09:27:52;;;;;;;10.07;3.88;;;12.70;56.20;;;;;;6294495;28;20044;-76
2024/02/13 09:30:53;;;;;;;11.57;4.22;;;12.80;56.10;;;;;;6297111;28;20058;-76
2024/02/13 09:33:57;;;;;;;13.38;3.63;;;12.80;56.10;;;;;;6284238;28;20421;-76
2024/02/13 09:36:59;;;;;;;7.15;3.42;;;12.80;56.10;;;;;;6273172;28;20107;-75
2024/02/13 09:40:00;;;;;;;10.38;3.70;;;12.90;55.90;;;;;;6282426;28;20036;-76
2024/02/13 09:43:01;;;;;;;12.82;5.30;;;12.90;55.80;;;;;;6285428;28;20111;-80
2024/02/13 09:46:03;;;;;;;9.98;4.85;;;12.90;55.70;;;;;;6290413;28;20081;-75
2024/02/13 09:49:06;;;;;;;11.80;3.92;;;13.00;55.80;;;;;;6282603;28;20104;-76
2024/02/13 09:52:12;;;;;;;22.13;3.92;;;13.00;55.70;;;;;;6260166;28;20016;-76
2024/02/13 09:55:15;;;;;;;10.25;3.55;;;13.10;55.50;;;;;;6279719;28;20021;-76
2024/02/13 09:58:18;;;;;;;6.18;2.90;;;13.00;55.40;;;;;;6293907;28;20039;-76
2024/02/13 10:01:19;;;;;;;13.43;3.85;;;12.90;55.30;;;;;;6281603;28;20109;-75
2024/02/13 10:04:22;;;;;;;12.02;3.33;;;13.00;55.50;;;;;;6284818;28;20036;-76
2024/02/13 10:07:23;;;;;;;8.25;3.35;;;13.10;55.60;;;;;;6285762;28;20055;-75
2024/02/13 10:10:25;;;;;;;3.92;2.85;;;13.10;55.40;;;;;;6306170;28;20078;-77
2024/02/13 10:13:40;;;;;;;16.10;7.10;;;13.10;55.00;;;;;;6305461;28;20036;-74
2024/02/13 10:16:41;;;;;;;15.00;5.20;;;13.10;55.00;;;;;;6291394;28;20033;-75
2024/02/13 10:19:42;;;;;;;19.77;5.57;;;13.10;55.10;;;;;;6281423;28;20090;-74
2024/02/13 10:22:50;;;;;;;22.60;6.43;;;13.20;55.00;;;;;;6263503;28;20048;-75
2024/02/13 10:25:53;;;;;;;12.75;4.68;;;13.20;54.80;;;;;;6266428;28;20104;-74
2024/02/13 10:28:56;;;;;;;20.60;7.78;;;13.40;54.80;;;;;;6297299;28;20020;-74
2024/02/13 10:32:06;;;;;;;6.18;2.90;;;13.70;53.80;;;;;;6312224;28;20005;-76
2024/02/13 10:35:09;;;;;;;5.32;2.35;;;14.00;53.10;;;;;;6269432;28;20055;-75
2024/02/13 10:38:21;;;;;;;5.10;2.17;;;14.30;52.40;;;;;;6294358;28;20027;-74
2024/02/13 10:41:26;;;;;;;4.68;2.40;;;14.40;51.50;;;;;;6307838;28;20055;-77
2024/02/13 10:44:30;;;;;;;6.82;3.20;;;14.60;51.40;;;;;;6291894;28;20068;-75
2024/02/13 10:47:36;;;;;;;7.82;2.63;;;14.80;51.10;;;;;;6296795;28;20024;-75
2024/02/13 10:50:40;;;;;;;3.97;2.47;;;15.00;51.10;;;;;;6284634;28;20051;-76
2024/02/13 10:53:42;;;;;;;15.10;2.55;;;15.20;50.50;;;;;;6299196;28;20105;-75
2024/02/13 10:56:45;;;;;;;8.18;2.85;;;15.40;50.30;;;;;;6309775;28;20432;-77
2024/02/13 10:59:48;;;;;;;3.22;2.08;;;15.60;49.90;;;;;;6289240;28;20087;-76
2024/02/13 11:02:55;;;;;;;7.20;2.60;;;15.90;49.10;;;;;;6286454;28;20115;-75
2024/02/13 11:05:57;;;;;;;8.20;2.28;;;16.10;48.40;;;;;;6285768;28;20072;-77
2024/02/13 11:09:05;;;;;;;6.22;2.50;;;16.30;47.70;;;;;;6285703;28;20358;-76
2024/02/13 11:12:09;;;;;;;4.82;2.15;;;16.50;46.30;;;;;;6300750;28;20436;-75
2024/02/13 11:15:18;;;;;;;9.63;2.80;;;16.80;46.00;;;;;;6292363;28;20107;-74
2024/02/13 11:18:22;;;;;;;5.18;1.92;;;17.10;45.80;;;;;;6301446;28;20059;-76
2024/02/13 11:21:26;;;;;;;5.00;2.13;;;17.50;44.90;;;;;;6284442;28;20078;-75
2024/02/13 11:24:29;;;;;;;8.32;2.10;;;18.00;43.90;;;;;;6289462;28;20131;-75
2024/02/13 11:27:32;;;;;;;11.75;2.55;;;18.50;43.00;;;;;;6286502;28;20016;-76
2024/02/13 11:30:38;;;;;;;5.63;2.08;;;19.10;42.20;;;;;;6269451;28;20395;-75
2024/02/13 11:34:08;;;;;;;18.27;4.22;;;19.60;41.20;;;;;;6292457;28;20052;-74
2024/02/13 11:37:20;;;;;;;11.23;3.28;;;20.10;40.60;;;;;;6282152;28;20120;-76
2024/02/13 11:40:23;;;;;;;5.72;2.22;;;20.60;38.50;;;;;;6303457;28;20092;-77
2024/02/13 11:43:27;;;;;;;12.95;2.03;;;21.00;37.00;;;;;;6277394;28;20036;-75
2024/02/13 11:46:29;;;;;;;4.13;2.00;;;21.40;36.00;;;;;;6283597;28;20020;-76
2024/02/13 11:49:31;;;;;;;2.70;1.70;;;21.90;35.70;;;;;;6294511;28;20124;-75
2024/02/13 11:52:32;;;;;;;5.82;1.92;;;22.30;34.00;;;;;;6279371;28;20461;-76
2024/02/13 11:55:33;;;;;;;7.22;2.50;;;22.50;33.30;;;;;;6266337;28;20047;-76
2024/02/13 11:58:36;;;;;;;11.05;1.95;;;22.80;33.70;;;;;;6284027;28;20047;-76
2024/02/13 12:01:38;;;;;;;7.07;2.45;;;23.20;31.50;;;;;;6289576;28;20435;-75
2024/02/13 12:04:42;;;;;;;3.95;2.20;;;23.50;31.50;;;;;;6301006;28;20111;-76
2024/02/13 12:07:44;;;;;;;5.95;2.60;;;23.70;30.10;;;;;;6307823;28;20114;-76
2024/02/13 12:10:51;;;;;;;5.95;2.38;;;23.60;30.50;;;;;;6286077;28;20031;-76
2024/02/13 12:18:17;;;;;;;3.97;2.17;;;23.70;30.70;;;;;;6283706;28;20115;-77
2024/02/13 12:21:19;;;;;;;4.32;2.10;;;23.50;29.80;;;;;;6240931;28;20029;-75
2024/02/13 12:24:20;;;;;;;3.90;1.88;;;22.80;31.30;;;;;;6276865;28;20488;-74
2024/02/13 12:27:24;;;;;;;5.55;1.90;;;22.30;31.90;;;;;;6281327;28;20106;-75
2024/02/13 12:30:26;;;;;;;4.97;1.77;;;21.80;32.10;;;;;;6298823;28;20028;-76
2024/02/13 12:33:28;;;;;;;4.38;1.98;;;21.20;32.90;;;;;;6305418;28;20077;-76
2024/02/13 12:36:32;;;;;;;1.85;1.58;;;20.60;33.80;;;;;;6305468;28;20363;-75
2024/02/13 12:39:36;;;;;;;11.50;1.98;;;20.30;34.90;;;;;;6291845;28;20107;-75
2024/02/13 12:42:40;;;;;;;4.38;1.73;;;20.10;35.10;;;;;;6289161;28;20032;-74
2024/02/13 12:45:41;;;;;;;2.70;1.45;;;19.90;35.40;;;;;;6295456;28;20024;-75
2024/02/13 12:48:42;;;;;;;4.35;1.73;;;19.80;35.60;;;;;;6272923;28;20418;-75
2024/02/13 12:51:44;;;;;;;9.23;1.40;;;19.60;35.40;;;;;;6289220;28;20115;-76
2024/02/13 12:54:46;;;;;;;5.53;1.40;;;19.40;36.10;;;;;;6279945;28;20076;-77
2024/02/13 12:57:49;;;;;;;3.03;1.48;;;19.20;35.30;;;;;;6264527;28;20185;-75
2024/02/13 13:00:50;;;;;;;3.35;1.30;;;19.00;35.70;;;;;;6299907;28;20022;-75
2024/02/13 13:03:58;;;;;;;6.97;2.40;;;18.70;36.10;;;;;;6298385;28;20055;-76
2024/02/13 13:06:59;;;;;;;3.70;1.58;;;18.50;36.50;;;;;;6298886;28;20008;-74
2024/02/13 13:10:03;;;;;;;12.68;1.67;;;18.30;37.00;;;;;;6287913;28;20126;-76
2024/02/13 13:13:06;;;;;;;3.35;1.48;;;18.10;36.80;;;;;;6304082;28;20058;-75
2024/02/13 13:16:11;;;;;;;3.92;1.65;;;17.90;36.70;;;;;;6291023;28;20016;-75
2024/02/13 13:19:14;;;;;;;3.53;1.70;;;17.60;37.10;;;;;;6259034;28;21556;-75
2024/02/13 13:22:17;;;;;;;12.25;1.80;;;17.40;37.80;;;;;;6287477;28;20043;-76
2024/02/13 13:25:30;;;;;;;8.73;2.10;;;17.20;38.30;;;;;;6299037;28;20024;-75
2024/02/13 13:28:32;;;;;;;4.95;1.80;;;17.20;38.70;;;;;;6281970;28;20477;-74
2024/02/13 13:31:40;;;;;;;4.85;1.77;;;17.10;39.00;;;;;;6283689;28;20028;-75
2024/02/13 13:34:43;;;;;;;3.20;1.42;;;17.10;39.20;;;;;;6267298;28;20022;-75
2024/02/13 13:37:47;;;;;;;4.93;1.60;;;17.00;39.40;;;;;;6275507;28;20032;-75
2024/02/13 13:40:48;;;;;;;4.45;1.35;;;16.90;39.50;;;;;;6289003;28;20386;-76
2024/02/13 13:43:49;;;;;;;3.22;1.45;;;16.90;39.40;;;;;;6280394;28;20095;-75
2024/02/13 13:46:52;;;;;;;5.43;1.50;;;16.80;39.50;;;;;;6283359;28;20100;-74
2024/02/13 13:49:54;;;;;;;4.47;1.45;;;16.80;39.80;;;;;;6283901;28;20905;-76
2024/02/13 13:52:55;;;;;;;4.05;1.80;;;16.70;39.90;;;;;;6287914;28;20136;-75
2024/02/13 13:55:56;;;;;;;1.73;1.17;;;16.70;40.30;;;;;;6299419;28;20032;-76
2024/02/13 13:59:28;;;;;;;2.72;1.38;;;16.70;40.40;;;;;;6288698;28;20024;-75
2024/02/13 14:02:30;;;;;;;2.67;1.08;;;16.70;40.30;;;;;;6265817;28;20048;-74
2024/02/13 14:05:37;;;;;;;4.30;1.48;;;16.80;40.10;;;;;;6283615;28;20021;-74
2024/02/13 14:08:41;;;;;;;5.40;1.80;;;16.80;39.90;;;;;;6305926;28;20023;-75
2024/02/13 14:11:42;;;;;;;3.08;1.60;;;16.80;39.90;;;;;;6309379;28;20036;-76
2024/02/13 14:14:43;;;;;;;4.53;1.80;;;16.80;40.00;;;;;;6287118;28;20043;-75
2024/02/13 14:17:45;;;;;;;3.88;0.95;;;16.90;39.90;;;;;;6304514;28;20035;-76
2024/02/13 14:20:46;;;;;;;5.07;1.73;;;16.90;39.40;;;;;;6280600;28;20060;-75
2024/02/13 14:23:48;;;;;;;4.95;1.45;;;16.80;39.40;;;;;;6267734;28;20033;-73
2024/02/13 14:26:50;;;;;;;5.05;1.48;;;16.90;39.60;;;;;;6300146;28;20043;-75
2024/02/13 14:29:52;;;;;;;4.90;1.40;;;16.90;39.50;;;;;;6297352;28;20394;-74
2024/02/13 14:32:54;;;;;;;3.33;1.70;;;16.90;39.10;;;;;;6283935;28;20021;-76
2024/02/13 14:35:55;;;;;;;10.25;1.70;;;16.90;39.20;;;;;;6287915;28;20021;-77
2024/02/13 14:38:57;;;;;;;7.50;2.45;;;16.80;39.30;;;;;;6289954;28;20591;-75
2024/02/13 14:41:59;;;;;;;3.63;1.58;;;16.90;39.20;;;;;;6253074;28;20033;-75
2024/02/13 14:45:01;;;;;;;4.07;1.33;;;16.90;38.80;;;;;;6316945;28;20395;-75
2024/02/13 14:48:07;;;;;;;3.95;1.40;;;16.90;38.90;;;;;;6284296;28;20555;-75
2024/02/13 14:51:16;;;;;;;3.03;1.42;;;16.90;39.20;;;;;;6308095;28;20018;-76
2024/02/13 14:54:20;;;;;;;5.75;1.13;;;16.90;38.80;;;;;;6310555;28;20077;-75
2024/02/13 14:57:21;;;;;;;7.30;2.20;;;16.90;38.50;;;;;;6293976;28;20553;-74
2024/02/13 15:00:24;;;;;;;4.32;1.45;;;16.90;38.50;;;;;;6282654;28;20024;-76
2024/02/13 15:03:25;;;;;;;2.25;1.10;;;16.90;38.80;;;;;;6275626;28;20029;-76
2024/02/13 15:06:29;;;;;;;3.50;1.80;;;16.90;38.80;;;;;;6291226;28;20528;-76
2024/02/13 15:09:32;;;;;;;2.92;1.48;;;16.90;38.40;;;;;;6289541;28;20047;-76
2024/02/13 15:12:34;;;;;;;3.35;1.42;;;16.80;38.40;;;;;;6272478;28;20135;-74
2024/02/13 15:15:36;;;;;;;3.58;1.50;;;16.80;38.80;;;;;;6287920;28;20081;-73
2024/02/13 15:18:39;;;;;;;8.25;1.60;;;16.90;39.10;;;;;;6287663;28;20662;-76
2024/02/13 15:21:44;;;;;;;4.28;1.27;;;16.90;39.00;;;;;;6290660;28;20078;-81
2024/02/13 15:24:44;;;;;;;4.35;1.00;;;16.90;38.40;;;;;;6292065;28;20108;-75
2024/02/13 15:27:45;;;;;;;0.55;0.52;;;16.90;38.40;;;;;;6292375;28;20016;-77
2024/02/13 15:30:46;;;;;;;3.42;1.23;;;16.90;38.20;;;;;;6289408;28;20020;-77
2024/02/13 15:33:49;;;;;;;3.47;1.55;;;16.90;38.30;;;;;;6293740;28;20043;-74
2024/02/13 15:49:58;;;;;;;8.23;1.30;;;16.80;38.50;;;;;;6273416;28;20027;-75
2024/02/13 15:53:02;;;;;;;1.88;1.05;;;16.80;38.00;;;;;;6287868;28;20024;-75
2024/02/13 15:56:09;;;;;;;4.53;1.30;;;16.80;38.30;;;;;;6291858;28;20384;-76
2024/02/13 15:59:12;;;;;;;3.58;1.30;;;16.80;39.10;;;;;;6287206;28;20020;-77
2024/02/13 16:02:17;;;;;;;1.75;1.17;;;16.80;38.60;;;;;;6285204;28;20028;-76
2024/02/13 16:05:18;;;;;;;5.13;1.58;;;16.70;38.90;;;;;;6272195;28;20020;-75
2024/02/13 16:08:19;;;;;;;9.73;1.38;;;16.70;39.20;;;;;;6286761;28;20365;-75
2024/02/13 16:11:21;;;;;;;3.20;1.40;;;16.60;39.40;;;;;;6287950;28;20091;-76
2024/02/13 16:14:23;;;;;;;3.72;1.38;;;16.60;39.60;;;;;;6272613;28;20154;-77